createdAt,value
2023-09-19T00:00:23.563Z,22.80
2023-09-19T00:03:00.720Z,22.77
2023-09-19T00:05:36.064Z,22.77
2023-09-19T00:08:06.807Z,22.72
2023-09-19T00:10:37.610Z,22.70
2023-09-19T00:13:09.023Z,22.71
2023-09-19T00:15:41.774Z,22.68
2023-09-19T00:18:10.188Z,22.65
2023-09-19T00:20:38.283Z,22.65
2023-09-19T00:23:05.941Z,22.61
2023-09-19T00:25:39.215Z,22.61
2023-09-19T00:28:07.805Z,22.58
2023-09-19T00:30:39.608Z,22.57
2023-09-19T00:33:09.733Z,22.53
2023-09-19T00:35:39.182Z,22.54
2023-09-19T00:38:07.922Z,22.54
2023-09-19T00:40:34.876Z,22.52
2023-09-19T00:43:01.690Z,22.51
2023-09-19T00:45:29.886Z,22.47
2023-09-19T00:47:58.564Z,22.42
2023-09-19T00:50:28.578Z,22.38
2023-09-19T00:52:59.045Z,22.36
2023-09-19T00:55:27.088Z,22.38
2023-09-19T00:57:54.058Z,22.45
2023-09-19T01:00:21.461Z,22.45
2023-09-19T01:02:49.164Z,22.46
2023-09-19T01:05:16.877Z,22.48
2023-09-19T01:07:45.848Z,22.49
2023-09-19T01:10:18.372Z,22.50
2023-09-19T01:12:49.276Z,22.44
2023-09-19T01:15:36.982Z,22.40
2023-09-19T01:18:34.758Z,22.39
2023-09-19T01:21:24.492Z,22.37
2023-09-19T01:24:09.248Z,22.32
2023-09-19T01:26:54.543Z,22.36
2023-09-19T01:29:36.205Z,22.32
2023-09-19T01:32:06.092Z,22.35
2023-09-19T01:35:05.381Z,22.30
2023-09-19T01:37:32.887Z,22.26
2023-09-19T01:40:17.838Z,22.26
2023-09-19T01:43:01.179Z,22.23
2023-09-19T01:45:28.486Z,22.20
2023-09-19T01:47:57.727Z,22.15
2023-09-19T01:51:03.410Z,22.14
2023-09-19T01:53:53.479Z,22.07
2023-09-19T01:56:33.945Z,22.08
2023-09-19T01:59:07.198Z,22.09
2023-09-19T02:01:36.600Z,22.08
2023-09-19T02:04:03.947Z,22.04
2023-09-19T02:06:30.845Z,22.05
2023-09-19T02:08:57.546Z,22.06
2023-09-19T02:11:24.768Z,22.05
2023-09-19T02:13:55.904Z,22.04
2023-09-19T02:16:23.100Z,21.99
2023-09-19T02:18:53.188Z,22.00
2023-09-19T02:21:19.969Z,22.01
2023-09-19T02:23:48.670Z,22.01
2023-09-19T02:26:15.456Z,21.98
2023-09-19T02:28:42.307Z,22.00
2023-09-19T02:31:09.245Z,22.02
2023-09-19T02:33:36.297Z,22.04
2023-09-19T02:36:05.072Z,22.00
2023-09-19T02:38:31.899Z,22.00
2023-09-19T02:40:58.604Z,21.97
2023-09-19T02:43:25.747Z,21.95
2023-09-19T02:45:56.196Z,21.91
2023-09-19T02:48:23.053Z,21.86
2023-09-19T02:50:53.405Z,21.83
2023-09-19T02:53:20.522Z,21.81
2023-09-19T02:55:48.357Z,21.81
2023-09-19T02:58:16.273Z,21.84
2023-09-19T03:00:43.710Z,21.78
2023-09-19T03:03:10.829Z,21.74
2023-09-19T03:05:39.676Z,21.73
2023-09-19T03:08:07.628Z,21.69
2023-09-19T03:10:34.426Z,21.68
2023-09-19T03:13:01.300Z,21.69
2023-09-19T03:15:28.244Z,21.71
2023-09-19T03:17:55.358Z,21.70
2023-09-19T03:20:22.459Z,21.71
2023-09-19T03:22:49.674Z,21.69
2023-09-19T03:25:18.709Z,21.65
2023-09-19T03:27:45.861Z,21.66
2023-09-19T03:30:14.710Z,21.64
2023-09-19T03:32:51.520Z,21.59
2023-09-19T03:35:19.520Z,21.56
2023-09-19T03:37:46.447Z,21.61
2023-09-19T03:40:17.336Z,21.56
2023-09-19T03:42:44.069Z,21.56
2023-09-19T03:45:14.527Z,21.53
2023-09-19T03:47:42.064Z,21.54
2023-09-19T03:50:09.644Z,21.56
2023-09-19T03:52:36.400Z,21.57
2023-09-19T03:55:06.479Z,21.53
2023-09-19T03:57:33.332Z,21.50
2023-09-19T04:00:00.027Z,21.45
2023-09-19T04:02:26.845Z,21.45
2023-09-19T04:04:53.909Z,21.47
2023-09-19T04:07:23.928Z,21.48
2023-09-19T04:09:50.828Z,21.51
2023-09-19T04:12:20.183Z,21.50
2023-09-19T04:14:46.890Z,21.52
2023-09-19T04:17:13.830Z,21.49
2023-09-19T04:19:42.843Z,21.48
2023-09-19T04:22:10.365Z,21.46
2023-09-19T04:24:37.142Z,21.39
2023-09-19T04:27:04.116Z,21.33
2023-09-19T04:29:31.089Z,21.33
2023-09-19T04:32:01.109Z,21.29
2023-09-19T04:34:28.649Z,21.22
2023-09-19T04:36:57.751Z,21.17
2023-09-19T04:39:27.267Z,21.10
2023-09-19T04:41:54.407Z,21.09
2023-09-19T04:44:21.130Z,21.08
2023-09-19T04:46:48.526Z,21.07
2023-09-19T04:49:15.264Z,21.01
2023-09-19T04:51:41.937Z,20.98
2023-09-19T04:54:08.702Z,20.99
2023-09-19T04:56:35.473Z,21.00
2023-09-19T04:59:02.236Z,20.95
2023-09-19T05:01:29.021Z,20.94
2023-09-19T05:03:55.755Z,20.90
2023-09-19T05:06:23.521Z,20.83
2023-09-19T05:08:53.951Z,20.76
2023-09-19T05:11:23.042Z,20.74
2023-09-19T05:13:51.517Z,20.69
2023-09-19T05:16:18.446Z,20.60
2023-09-19T05:18:45.500Z,20.50
2023-09-19T05:21:12.473Z,20.48
2023-09-19T05:23:39.418Z,20.44
2023-09-19T05:26:06.447Z,20.32
2023-09-19T05:28:36.189Z,20.36
2023-09-19T05:31:06.267Z,20.37
2023-09-19T05:33:33.393Z,20.39
2023-09-19T05:36:00.323Z,20.41
2023-09-19T05:38:27.893Z,20.44
2023-09-19T05:40:55.283Z,20.46
2023-09-19T05:43:22.265Z,20.46
2023-09-19T05:45:49.394Z,20.40
2023-09-19T05:48:17.620Z,20.38
2023-09-19T05:50:50.150Z,20.36
2023-09-19T05:53:17.375Z,20.30
2023-09-19T05:55:44.513Z,20.30
2023-09-19T05:58:11.871Z,20.30
2023-09-19T06:00:44.087Z,20.31
2023-09-19T06:03:10.967Z,20.31
2023-09-19T06:05:37.719Z,20.29
2023-09-19T06:08:09.105Z,20.30
2023-09-19T06:10:36.416Z,20.28
2023-09-19T06:13:05.954Z,20.26
2023-09-19T06:15:34.578Z,20.19
2023-09-19T06:18:03.552Z,20.19
2023-09-19T06:20:30.970Z,20.12
2023-09-19T06:22:58.399Z,20.07
2023-09-19T06:25:28.658Z,20.05
2023-09-19T06:27:56.123Z,20.01
2023-09-19T06:30:25.664Z,19.99
2023-09-19T06:32:59.514Z,19.94
2023-09-19T06:35:27.747Z,19.87
2023-09-19T06:37:54.590Z,19.88
2023-09-19T06:40:22.233Z,19.86
2023-09-19T06:42:52.191Z,19.89
2023-09-19T06:45:19.653Z,19.94
2023-09-19T06:47:51.458Z,19.91
2023-09-19T06:50:24.439Z,19.98
2023-09-19T06:52:54.265Z,20.05
2023-09-19T06:55:22.512Z,20.03
2023-09-19T06:57:49.723Z,20.06
2023-09-19T07:00:19.523Z,20.08
2023-09-19T07:02:55.657Z,20.07
2023-09-19T07:05:23.194Z,19.99
2023-09-19T07:07:50.142Z,19.95
2023-09-19T07:10:17.364Z,19.95
2023-09-19T07:12:44.377Z,20.01
2023-09-19T07:15:11.169Z,20.00
2023-09-19T07:17:40.454Z,19.96
2023-09-19T07:20:09.255Z,19.95
2023-09-19T07:22:37.576Z,19.97
2023-09-19T07:25:04.679Z,20.00
2023-09-19T07:27:32.573Z,19.95
2023-09-19T07:30:00.128Z,19.94
2023-09-19T07:32:26.836Z,19.95
2023-09-19T07:34:54.127Z,19.96
2023-09-19T07:37:22.537Z,19.95
2023-09-19T07:39:49.306Z,19.94
2023-09-19T07:42:19.062Z,20.00
2023-09-19T07:44:48.753Z,20.02
2023-09-19T07:47:15.978Z,20.02
2023-09-19T07:49:43.807Z,19.99
2023-09-19T07:52:13.455Z,20.01
2023-09-19T07:54:42.620Z,20.00
2023-09-19T07:57:09.269Z,19.99
2023-09-19T07:59:40.056Z,19.99
2023-09-19T08:02:06.922Z,19.91
2023-09-19T08:04:35.125Z,19.94
2023-09-19T08:07:04.561Z,19.98
2023-09-19T08:09:34.409Z,20.05
2023-09-19T08:12:04.013Z,20.10
2023-09-19T08:14:32.734Z,20.14
2023-09-19T08:17:00.260Z,20.15
2023-09-19T08:19:32.944Z,20.18
2023-09-19T08:21:59.905Z,20.20
2023-09-19T08:24:29.783Z,20.25
2023-09-19T08:26:57.563Z,20.27
2023-09-19T08:29:28.902Z,20.27
2023-09-19T08:31:57.276Z,20.30
2023-09-19T08:34:25.461Z,20.28
2023-09-19T08:36:55.546Z,20.24
2023-09-19T08:39:22.170Z,20.24
2023-09-19T08:41:48.865Z,20.23
2023-09-19T08:44:15.655Z,20.23
2023-09-19T08:46:43.386Z,20.23
2023-09-19T08:49:23.651Z,20.24
2023-09-19T08:52:02.211Z,20.31
2023-09-19T08:54:36.169Z,20.35
2023-09-19T08:57:12.072Z,20.38
2023-09-19T08:59:41.506Z,20.40
2023-09-19T09:02:16.509Z,20.43
2023-09-19T09:04:45.218Z,20.47
2023-09-19T09:07:13.999Z,20.49
2023-09-19T09:09:45.024Z,20.54
2023-09-19T09:12:16.652Z,20.57
2023-09-19T09:14:50.011Z,20.64
2023-09-19T09:17:21.488Z,20.71
2023-09-19T09:19:48.850Z,20.76
2023-09-19T09:22:16.047Z,20.81
2023-09-19T09:24:59.535Z,20.83
2023-09-19T09:27:26.525Z,20.87
2023-09-19T09:29:56.277Z,20.90
2023-09-19T09:32:23.197Z,20.92
2023-09-19T09:34:54.695Z,21.00
2023-09-19T09:37:23.403Z,21.06
2023-09-19T09:39:59.351Z,21.12
2023-09-19T09:42:36.504Z,21.23
2023-09-19T09:45:20.939Z,21.30
2023-09-19T09:47:56.678Z,21.34
2023-09-19T09:50:37.587Z,21.42
2023-09-19T09:53:07.905Z,21.44
2023-09-19T09:56:01.005Z,21.49
2023-09-19T09:58:31.234Z,21.53
2023-09-19T10:00:59.003Z,21.58
2023-09-19T10:03:45.562Z,21.64
2023-09-19T10:06:35.314Z,21.69
2023-09-19T10:09:12.889Z,21.80
2023-09-19T10:11:45.419Z,21.88
2023-09-19T10:14:24.974Z,21.92
2023-09-19T10:17:01.674Z,21.95
2023-09-19T10:19:47.681Z,21.96
2023-09-19T10:22:21.877Z,21.91
2023-09-19T10:25:02.247Z,21.93
2023-09-19T10:27:38.397Z,21.91
2023-09-19T10:30:08.782Z,21.90
2023-09-19T10:32:37.446Z,21.92
2023-09-19T10:35:06.658Z,21.96
2023-09-19T10:37:35.505Z,21.98
2023-09-19T10:40:02.285Z,21.99
2023-09-19T10:42:34.282Z,22.03
2023-09-19T10:45:03.845Z,22.07
2023-09-19T10:47:32.257Z,22.12
2023-09-19T10:49:59.705Z,22.14
2023-09-19T10:52:28.868Z,22.17
2023-09-19T10:54:59.785Z,22.20
2023-09-19T10:57:29.068Z,22.26
2023-09-19T11:00:24.912Z,22.29
2023-09-19T11:03:10.807Z,22.34
2023-09-19T11:05:41.732Z,22.42
2023-09-19T11:08:09.549Z,22.52
2023-09-19T11:10:50.297Z,22.61
2023-09-19T11:13:27.928Z,22.71
2023-09-19T11:16:01.034Z,22.74
2023-09-19T11:18:43.301Z,22.81
2023-09-19T11:21:35.134Z,22.87
2023-09-19T11:24:11.356Z,22.94
2023-09-19T11:26:49.095Z,22.98
2023-09-19T11:29:42.888Z,23.02
2023-09-19T11:32:11.291Z,23.04
2023-09-19T11:34:38.251Z,23.08
2023-09-19T11:37:34.017Z,23.15
2023-09-19T11:40:17.198Z,23.20
2023-09-19T11:42:55.327Z,23.23
2023-09-19T11:45:58.598Z,23.23
2023-09-19T11:48:28.460Z,23.24
2023-09-19T11:50:56.426Z,23.26
2023-09-19T11:53:24.230Z,23.24
2023-09-19T11:55:51.805Z,23.22
2023-09-19T11:58:21.128Z,23.17
2023-09-19T12:00:55.857Z,23.10
2023-09-19T12:03:24.048Z,23.06
2023-09-19T12:05:50.953Z,23.06
2023-09-19T12:08:18.429Z,23.05
2023-09-19T12:10:52.503Z,23.06
2023-09-19T12:13:22.404Z,23.04
2023-09-19T12:15:51.946Z,23.02
2023-09-19T12:18:31.686Z,23.00
2023-09-19T12:21:05.994Z,22.98
2023-09-19T12:23:32.764Z,23.00
2023-09-19T12:26:00.587Z,23.05
2023-09-19T12:28:32.697Z,23.10
2023-09-19T12:31:08.796Z,23.14
2023-09-19T12:33:36.673Z,23.19
2023-09-19T12:36:30.329Z,23.20
2023-09-19T12:39:00.329Z,23.20
2023-09-19T12:41:27.685Z,23.23
2023-09-19T12:43:55.653Z,23.19
2023-09-19T12:46:27.426Z,23.19
2023-09-19T12:49:19.884Z,23.20
2023-09-19T12:51:48.262Z,23.16
2023-09-19T12:54:16.399Z,23.17
2023-09-19T12:56:46.027Z,23.19
2023-09-19T12:59:17.078Z,23.20
2023-09-19T13:01:47.493Z,23.22
2023-09-19T13:04:20.409Z,23.22
2023-09-19T13:06:50.331Z,23.21
2023-09-19T13:09:18.654Z,23.22
2023-09-19T13:11:47.136Z,23.23
2023-09-19T13:14:21.124Z,23.22
2023-09-19T13:17:04.469Z,23.22
2023-09-19T13:19:44.840Z,23.23
2023-09-19T13:22:55.291Z,23.22
2023-09-19T13:25:23.280Z,23.18
2023-09-19T13:27:53.439Z,23.17
2023-09-19T13:30:21.554Z,23.16
2023-09-19T13:32:49.226Z,23.13
2023-09-19T13:35:17.175Z,23.06
2023-09-19T13:37:44.729Z,23.02
2023-09-19T13:40:12.924Z,23.00
2023-09-19T13:42:41.004Z,23.00
2023-09-19T13:45:08.522Z,22.95
2023-09-19T13:47:37.227Z,22.88
2023-09-19T13:50:05.789Z,22.80
2023-09-19T13:52:32.933Z,22.73
2023-09-19T13:55:00.569Z,22.58
2023-09-19T13:57:28.287Z,22.50
2023-09-19T13:59:55.812Z,22.39
2023-09-19T14:02:26.411Z,22.32
2023-09-19T14:04:53.842Z,22.24
2023-09-19T14:07:21.830Z,22.18
2023-09-19T14:09:48.907Z,22.14
2023-09-19T14:12:16.657Z,22.06
2023-09-19T14:14:43.773Z,21.96
2023-09-19T14:17:10.953Z,21.90
2023-09-19T14:19:38.385Z,21.83
2023-09-19T14:22:09.047Z,21.80
2023-09-19T14:24:39.307Z,21.79
2023-09-19T14:27:07.942Z,21.81
2023-09-19T14:29:34.694Z,21.83
2023-09-19T14:32:01.502Z,21.80
2023-09-19T14:34:28.186Z,21.80
2023-09-19T14:36:57.803Z,21.82
2023-09-19T14:39:24.681Z,21.83
2023-09-19T14:41:51.467Z,21.87
2023-09-19T14:44:18.288Z,21.93
2023-09-19T14:46:46.447Z,21.99
2023-09-19T14:49:13.300Z,22.03
2023-09-19T14:51:45.307Z,22.05
2023-09-19T14:54:12.360Z,22.09
2023-09-19T14:56:39.006Z,22.13
2023-09-19T14:59:05.968Z,22.13
2023-09-19T15:01:33.756Z,22.18
2023-09-19T15:04:02.325Z,22.24
2023-09-19T15:06:29.645Z,22.25
2023-09-19T15:08:56.520Z,22.28
2023-09-19T15:11:23.825Z,22.33
2023-09-19T15:13:53.902Z,22.38
2023-09-19T15:16:20.939Z,22.40
2023-09-19T15:18:50.902Z,22.43
2023-09-19T15:21:18.901Z,22.40
2023-09-19T15:23:47.920Z,22.41
2023-09-19T15:26:21.729Z,22.40
2023-09-19T15:28:49.451Z,22.37
2023-09-19T15:31:16.417Z,22.38
2023-09-19T15:33:43.143Z,22.39
2023-09-19T15:36:14.857Z,22.40
2023-09-19T15:39:01.923Z,22.40
2023-09-19T15:41:31.302Z,22.36
2023-09-19T15:44:00.686Z,22.34
2023-09-19T15:46:28.152Z,22.34
2023-09-19T15:48:55.481Z,22.32
2023-09-19T15:51:22.235Z,22.27
2023-09-19T15:53:54.781Z,22.25
2023-09-19T15:56:24.072Z,22.21
2023-09-19T15:58:53.035Z,22.18
2023-09-19T16:01:19.831Z,22.18
2023-09-19T16:03:51.318Z,22.17
2023-09-19T16:06:20.466Z,22.12
2023-09-19T16:08:48.825Z,22.07
2023-09-19T16:11:16.674Z,22.01
2023-09-19T16:13:44.206Z,21.96
2023-09-19T16:16:14.215Z,21.93
2023-09-19T16:18:41.493Z,21.91
2023-09-19T16:21:12.471Z,21.88
2023-09-19T16:23:39.217Z,21.81
2023-09-19T16:26:10.456Z,21.80
2023-09-19T16:28:38.300Z,21.76
2023-09-19T16:31:05.605Z,21.74
2023-09-19T16:33:37.837Z,21.72
2023-09-19T16:36:24.985Z,21.69
2023-09-19T16:38:52.394Z,21.66
2023-09-19T16:41:20.612Z,21.61
2023-09-19T16:43:48.038Z,21.57
2023-09-19T16:46:17.917Z,21.48
2023-09-19T16:48:56.111Z,21.44
2023-09-19T16:51:29.916Z,21.38
2023-09-19T16:53:57.003Z,21.30
2023-09-19T16:56:23.830Z,21.26
2023-09-19T16:58:53.044Z,21.23
2023-09-19T17:01:21.330Z,21.18
2023-09-19T17:03:49.482Z,21.11
2023-09-19T17:06:19.101Z,21.05
2023-09-19T17:08:46.853Z,21.03
2023-09-19T17:11:16.742Z,21.00
2023-09-19T17:13:43.797Z,20.99
2023-09-19T17:16:12.207Z,20.92
2023-09-19T17:18:42.857Z,20.91
2023-09-19T17:21:13.745Z,20.91
2023-09-19T17:23:42.098Z,20.90
2023-09-19T17:26:18.139Z,20.86
2023-09-19T17:28:45.090Z,20.88
2023-09-19T17:31:23.286Z,20.75
2023-09-19T17:33:52.013Z,20.71
2023-09-19T17:36:25.019Z,20.60
2023-09-19T17:38:54.698Z,20.53
2023-09-19T17:41:23.079Z,20.48
2023-09-19T17:44:00.494Z,20.40
2023-09-19T17:46:30.919Z,20.33
2023-09-19T17:48:59.711Z,20.28
2023-09-19T17:51:28.253Z,20.22
2023-09-19T17:53:58.383Z,20.15
2023-09-19T17:56:25.782Z,20.12
2023-09-19T17:59:00.172Z,20.08
2023-09-19T18:01:33.448Z,19.98
2023-09-19T18:04:03.406Z,19.99
2023-09-19T18:06:33.948Z,19.99
2023-09-19T18:09:08.697Z,20.00
2023-09-19T18:11:35.693Z,20.01
2023-09-19T18:14:03.361Z,19.96
2023-09-19T18:16:34.872Z,19.94
2023-09-19T18:19:03.263Z,19.95
2023-09-19T18:21:30.895Z,19.90
2023-09-19T18:24:00.308Z,19.82
2023-09-19T18:26:28.741Z,19.81
2023-09-19T18:28:55.573Z,19.83
2023-09-19T18:31:22.664Z,19.74
2023-09-19T18:33:50.985Z,19.65
2023-09-19T18:36:17.868Z,19.67
2023-09-19T18:38:46.059Z,19.70
2023-09-19T18:41:16.230Z,19.66
2023-09-19T18:43:43.582Z,19.57
2023-09-19T18:46:11.311Z,19.58
2023-09-19T18:48:38.824Z,19.59
2023-09-19T18:51:09.506Z,19.57
2023-09-19T18:53:37.100Z,19.56
2023-09-19T18:56:13.384Z,19.53
2023-09-19T18:58:40.749Z,19.50
2023-09-19T19:01:09.401Z,19.40
2023-09-19T19:03:36.888Z,19.35
2023-09-19T19:06:11.278Z,19.30
2023-09-19T19:08:39.150Z,19.27
2023-09-19T19:11:11.234Z,19.24
2023-09-19T19:13:37.962Z,19.23
2023-09-19T19:16:05.005Z,19.21
2023-09-19T19:18:32.303Z,19.17
2023-09-19T19:21:03.524Z,19.12
2023-09-19T19:23:30.307Z,19.10
2023-09-19T19:26:01.440Z,19.06
2023-09-19T19:28:30.289Z,19.03
2023-09-19T19:30:57.281Z,19.04
2023-09-19T19:33:25.541Z,19.04
2023-09-19T19:35:52.757Z,19.08
2023-09-19T19:38:21.146Z,19.04
2023-09-19T19:40:49.958Z,19.06
2023-09-19T19:43:16.856Z,19.09
2023-09-19T19:45:43.518Z,19.12
2023-09-19T19:48:10.698Z,19.14
2023-09-19T19:50:39.591Z,19.15
2023-09-19T19:53:06.346Z,19.13
2023-09-19T19:55:33.300Z,19.07
2023-09-19T19:58:00.282Z,18.98
2023-09-19T20:00:28.451Z,18.91
2023-09-19T20:02:55.328Z,18.91
2023-09-19T20:05:22.135Z,18.93
2023-09-19T20:07:49.444Z,18.94
2023-09-19T20:10:20.919Z,18.92
2023-09-19T20:12:50.806Z,18.91
2023-09-19T20:15:17.959Z,18.84
2023-09-19T20:17:45.045Z,18.80
2023-09-19T20:20:18.712Z,18.84
2023-09-19T20:22:46.716Z,18.82
2023-09-19T20:25:13.709Z,18.77
2023-09-19T20:27:41.169Z,18.79
2023-09-19T20:30:09.889Z,18.80
2023-09-19T20:32:40.504Z,18.78
2023-09-19T20:35:08.979Z,18.77
2023-09-19T20:37:38.364Z,18.70
2023-09-19T20:40:11.352Z,18.66
2023-09-19T20:42:41.241Z,18.63
2023-09-19T20:45:14.077Z,18.57
2023-09-19T20:47:41.358Z,18.55
2023-09-19T20:50:09.524Z,18.57
2023-09-19T20:52:37.189Z,18.58
2023-09-19T20:55:04.630Z,18.58
2023-09-19T20:57:31.308Z,18.58
2023-09-19T20:59:58.210Z,18.53
2023-09-19T21:02:24.945Z,18.54
2023-09-19T21:04:51.767Z,18.51
2023-09-19T21:07:18.597Z,18.55
2023-09-19T21:09:45.249Z,18.56
2023-09-19T21:12:11.859Z,18.54
2023-09-19T21:14:39.199Z,18.52
2023-09-19T21:17:07.861Z,18.52
2023-09-19T21:19:35.143Z,18.51
2023-09-19T21:22:04.845Z,18.51
2023-09-19T21:24:33.915Z,18.50
2023-09-19T21:27:05.951Z,18.49
2023-09-19T21:29:32.997Z,18.50
2023-09-19T21:31:59.787Z,18.48
2023-09-19T21:34:26.668Z,18.46
2023-09-19T21:36:54.667Z,18.47
2023-09-19T21:39:21.690Z,18.47
2023-09-19T21:41:48.375Z,18.44
2023-09-19T21:44:15.295Z,18.42
2023-09-19T21:46:42.121Z,18.43
2023-09-19T21:49:08.956Z,18.42
2023-09-19T21:51:35.897Z,18.42
2023-09-19T21:54:05.543Z,18.43
2023-09-19T21:56:32.400Z,18.41
2023-09-19T21:58:59.240Z,18.36
2023-09-19T22:01:26.567Z,18.34
2023-09-19T22:03:56.846Z,18.31
2023-09-19T22:06:23.702Z,18.25
2023-09-19T22:08:52.037Z,18.23
2023-09-19T22:11:21.716Z,18.22
2023-09-19T22:13:49.121Z,18.23
2023-09-19T22:16:18.457Z,18.20
2023-09-19T22:18:47.380Z,18.22
2023-09-19T22:21:23.076Z,18.21
2023-09-19T22:23:56.628Z,18.17
2023-09-19T22:26:23.890Z,18.06
2023-09-19T22:28:53.922Z,17.97
2023-09-19T22:31:28.501Z,17.88
2023-09-19T22:33:56.591Z,17.89
2023-09-19T22:36:40.744Z,17.91
2023-09-19T22:39:34.245Z,17.90
2023-09-19T22:42:00.968Z,17.85
2023-09-19T22:44:28.963Z,17.85
2023-09-19T22:46:57.202Z,17.78
2023-09-19T22:49:27.837Z,17.75
2023-09-19T22:51:59.916Z,17.76
2023-09-19T22:54:36.886Z,17.76
2023-09-19T22:57:06.231Z,17.77
2023-09-19T22:59:35.040Z,17.74
2023-09-19T23:02:01.984Z,17.67
2023-09-19T23:04:28.689Z,17.58
2023-09-19T23:07:01.772Z,17.60
2023-09-19T23:09:29.341Z,17.63
2023-09-19T23:12:03.518Z,17.65
2023-09-19T23:14:43.109Z,17.66
2023-09-19T23:17:14.295Z,17.65
2023-09-19T23:19:49.965Z,17.60
2023-09-19T23:22:19.730Z,17.58
2023-09-19T23:24:50.963Z,17.51
2023-09-19T23:27:25.773Z,17.52
2023-09-19T23:29:55.466Z,17.54
2023-09-19T23:32:22.994Z,17.52
2023-09-19T23:34:49.982Z,17.49
2023-09-19T23:37:17.364Z,17.49
2023-09-19T23:39:43.983Z,17.45
2023-09-19T23:42:13.737Z,17.40
2023-09-19T23:44:44.644Z,17.36
2023-09-19T23:47:12.184Z,17.28
2023-09-19T23:49:40.520Z,17.32
2023-09-19T23:52:08.055Z,17.32
2023-09-19T23:54:36.284Z,17.30
2023-09-19T23:57:07.517Z,17.28
2023-09-19T23:59:34.619Z,17.21
